createdAt,value
2022-09-26T00:00:19.655Z,28.30
2022-09-26T00:02:21.437Z,26.38
2022-09-26T00:04:31.809Z,28.10
2022-09-26T00:06:34.789Z,24.20
2022-09-26T00:08:37.697Z,22.38
2022-09-26T00:10:39.435Z,22.95
2022-09-26T00:12:41.430Z,25.05
2022-09-26T00:14:43.114Z,29.42
2022-09-26T00:16:45.509Z,29.80
2022-09-26T00:18:52.206Z,28.35
2022-09-26T00:20:54.320Z,30.73
2022-09-26T00:22:56.025Z,31.92
2022-09-26T00:24:58.030Z,27.65
2022-09-26T00:26:59.723Z,28.52
2022-09-26T00:29:03.575Z,29.30
2022-09-26T00:31:07.854Z,28.67
2022-09-26T00:33:09.612Z,27.80
2022-09-26T00:35:11.339Z,27.85
2022-09-26T00:37:13.176Z,26.98
2022-09-26T00:39:16.170Z,25.48
2022-09-26T00:41:18.129Z,25.67
2022-09-26T00:43:35.241Z,27.48
2022-09-26T00:45:37.037Z,26.15
2022-09-26T00:47:50.580Z,26.17
2022-09-26T00:49:58.121Z,25.15
2022-09-26T00:52:15.739Z,24.70
2022-09-26T00:54:19.225Z,24.70
2022-09-26T00:56:28.324Z,24.55
2022-09-26T00:58:34.820Z,23.52
2022-09-26T01:00:42.025Z,23.70
2022-09-26T01:02:47.111Z,24.13
2022-09-26T01:04:49.178Z,25.13
2022-09-26T01:06:50.882Z,25.08
2022-09-26T01:09:12.630Z,28.17
2022-09-26T01:11:16.987Z,28.45
2022-09-26T01:13:20.009Z,27.23
2022-09-26T01:15:22.190Z,28.13
2022-09-26T01:17:25.213Z,27.70
2022-09-26T01:19:41.839Z,26.55
2022-09-26T01:22:27.692Z,26.02
2022-09-26T01:25:06.806Z,25.65
2022-09-26T01:27:41.784Z,26.45
2022-09-26T01:30:14.662Z,25.20
2022-09-26T01:32:44.744Z,25.95
2022-09-26T01:35:06.644Z,25.23
2022-09-26T01:37:31.350Z,26.98
2022-09-26T01:39:48.582Z,25.50
2022-09-26T01:42:15.662Z,27.55
2022-09-26T01:44:35.762Z,26.73
2022-09-26T01:46:51.342Z,26.98
2022-09-26T01:49:02.578Z,27.45
2022-09-26T01:51:27.770Z,26.40
2022-09-26T01:54:19.281Z,27.15
2022-09-26T01:56:24.560Z,25.25
2022-09-26T01:58:48.171Z,26.27
2022-09-26T02:00:51.808Z,24.57
2022-09-26T02:05:03.905Z,25.48
2022-09-26T02:07:29.256Z,26.27
2022-09-26T02:09:43.208Z,26.23
2022-09-26T02:11:49.355Z,26.90
2022-09-26T02:13:51.069Z,24.95
2022-09-26T02:16:00.534Z,27.02
2022-09-26T02:18:21.519Z,29.17
2022-09-26T02:20:29.648Z,27.67
2022-09-26T02:22:34.324Z,26.48
2022-09-26T02:24:36.141Z,25.92
2022-09-26T02:26:38.272Z,26.00
2022-09-26T02:28:40.305Z,25.95
2022-09-26T02:30:44.825Z,25.73
2022-09-26T02:32:46.756Z,25.77
2022-09-26T02:34:49.186Z,25.88
2022-09-26T02:36:52.081Z,25.25
2022-09-26T02:38:53.837Z,25.85
2022-09-26T02:41:10.936Z,24.00
2022-09-26T02:43:54.186Z,24.92
2022-09-26T02:46:16.394Z,24.98
2022-09-26T02:48:42.363Z,24.45
2022-09-26T02:51:15.846Z,25.38
2022-09-26T02:53:53.185Z,23.63
2022-09-26T02:56:26.634Z,23.60
2022-09-26T02:58:37.573Z,23.75
2022-09-26T03:00:58.060Z,26.38
2022-09-26T03:03:17.534Z,26.95
2022-09-26T03:05:29.761Z,25.15
2022-09-26T03:07:38.255Z,24.60
2022-09-26T03:09:42.151Z,25.40
2022-09-26T03:11:45.104Z,24.50
2022-09-26T03:13:50.695Z,24.27
2022-09-26T03:15:56.513Z,24.35
2022-09-26T03:18:00.149Z,24.55
2022-09-26T03:20:17.622Z,24.77
2022-09-26T03:22:19.615Z,25.10
2022-09-26T03:24:23.900Z,26.27
2022-09-26T03:26:28.047Z,25.67
2022-09-26T03:28:34.010Z,26.42
2022-09-26T03:30:38.606Z,24.75
2022-09-26T03:32:40.467Z,25.02
2022-09-26T03:34:42.338Z,24.83
2022-09-26T03:36:44.072Z,23.90
2022-09-26T03:38:45.961Z,24.52
2022-09-26T03:40:48.244Z,23.80
2022-09-26T03:42:49.972Z,23.13
2022-09-26T03:44:51.940Z,24.27
2022-09-26T03:46:54.026Z,23.02
2022-09-26T03:48:55.717Z,23.17
2022-09-26T03:51:12.425Z,23.38
2022-09-26T03:53:14.401Z,24.15
2022-09-26T03:55:16.194Z,23.92
2022-09-26T03:57:18.232Z,22.88
2022-09-26T03:59:20.041Z,23.50
2022-09-26T04:01:22.827Z,25.60
2022-09-26T04:03:30.046Z,25.27
2022-09-26T04:05:31.817Z,25.77
2022-09-26T04:07:33.508Z,25.50
2022-09-26T04:09:35.615Z,26.35
2022-09-26T04:11:37.833Z,26.92
2022-09-26T04:13:51.285Z,26.13
2022-09-26T04:15:58.841Z,27.20
2022-09-26T04:18:00.700Z,27.08
2022-09-26T04:20:02.738Z,26.80
2022-09-26T04:22:04.998Z,29.88
2022-09-26T04:24:08.446Z,29.35
2022-09-26T04:26:20.206Z,28.52
2022-09-26T04:28:24.257Z,29.52
2022-09-26T04:30:26.049Z,28.38
2022-09-26T04:32:27.756Z,27.30
2022-09-26T04:34:29.527Z,30.58
2022-09-26T04:36:32.060Z,31.60
2022-09-26T04:38:33.846Z,29.83
2022-09-26T04:40:42.722Z,29.17
2022-09-26T04:42:45.189Z,30.50
2022-09-26T04:44:46.912Z,41.33
2022-09-26T04:46:48.663Z,39.75
2022-09-26T04:48:51.901Z,36.88
2022-09-26T04:50:53.670Z,34.80
2022-09-26T04:52:55.369Z,31.45
2022-09-26T04:54:57.371Z,31.17
2022-09-26T04:57:00.359Z,30.20
2022-09-26T04:59:02.071Z,30.95
2022-09-26T05:01:06.608Z,34.47
2022-09-26T05:03:08.354Z,32.90
2022-09-26T05:05:10.079Z,31.83
2022-09-26T05:07:11.913Z,30.65
2022-09-26T05:09:13.759Z,31.45
2022-09-26T05:11:17.211Z,31.10
2022-09-26T05:13:19.347Z,31.65
2022-09-26T05:15:21.291Z,29.83
2022-09-26T05:17:23.071Z,30.92
2022-09-26T05:19:24.851Z,31.00
2022-09-26T05:21:26.716Z,29.77
2022-09-26T05:23:28.497Z,30.05
2022-09-26T05:25:36.682Z,32.42
2022-09-26T05:27:38.472Z,32.00
2022-09-26T05:29:40.145Z,31.45
2022-09-26T05:31:42.183Z,33.92
2022-09-26T05:33:43.997Z,33.05
2022-09-26T05:35:52.608Z,34.17
2022-09-26T05:38:04.751Z,34.53
2022-09-26T05:40:06.719Z,34.53
2022-09-26T05:42:08.513Z,34.22
2022-09-26T05:44:10.472Z,35.33
2022-09-26T05:46:12.632Z,35.90
2022-09-26T05:48:14.363Z,36.20
2022-09-26T05:50:16.269Z,35.13
2022-09-26T05:52:18.215Z,37.20
2022-09-26T05:54:19.996Z,36.72
2022-09-26T05:56:21.857Z,35.15
2022-09-26T05:58:23.566Z,37.08
2022-09-26T06:00:28.374Z,36.80
2022-09-26T06:02:30.320Z,38.00
2022-09-26T06:04:32.557Z,37.60
2022-09-26T06:06:34.294Z,37.20
2022-09-26T06:08:37.559Z,36.45
2022-09-26T06:10:39.473Z,36.63
2022-09-26T06:12:41.150Z,35.83
2022-09-26T06:14:42.964Z,35.05
2022-09-26T06:16:44.755Z,37.22
2022-09-26T06:18:48.453Z,38.03
2022-09-26T06:22:52.097Z,35.30
2022-09-26T06:24:53.859Z,36.72
2022-09-26T06:26:55.618Z,35.63
2022-09-26T06:28:59.077Z,32.78
2022-09-26T06:31:01.263Z,34.83
2022-09-26T06:33:03.225Z,34.95
2022-09-26T06:35:06.537Z,35.63
2022-09-26T06:37:08.248Z,34.83
2022-09-26T06:39:10.153Z,34.80
2022-09-26T06:41:11.927Z,34.03
2022-09-26T06:43:13.825Z,36.28
2022-09-26T06:45:15.735Z,35.30
2022-09-26T06:47:18.048Z,37.15
2022-09-26T06:49:19.908Z,36.85
2022-09-26T06:51:21.693Z,36.63
2022-09-26T06:53:23.700Z,34.72
2022-09-26T06:55:25.408Z,34.00
2022-09-26T06:57:27.230Z,34.83
2022-09-26T06:59:28.986Z,34.58
2022-09-26T07:01:30.753Z,38.50
2022-09-26T07:03:32.822Z,34.90
2022-09-26T07:05:34.603Z,36.22
2022-09-26T07:07:42.674Z,37.00
2022-09-26T07:09:44.535Z,37.55
2022-09-26T07:12:14.045Z,37.50
2022-09-26T07:14:11.282Z,37.92
2022-09-26T07:16:13.487Z,35.83
2022-09-26T07:18:15.427Z,34.65
2022-09-26T07:20:19.812Z,35.30
2022-09-26T07:22:21.677Z,34.45
2022-09-26T07:24:23.451Z,35.33
2022-09-26T07:26:25.167Z,32.85
2022-09-26T07:28:27.163Z,35.42
2022-09-26T07:30:29.012Z,35.83
2022-09-26T07:32:31.058Z,36.83
2022-09-26T07:34:32.859Z,36.25
2022-09-26T07:36:34.727Z,34.00
2022-09-26T07:38:36.778Z,33.78
2022-09-26T07:40:38.757Z,31.63
2022-09-26T07:42:40.533Z,30.83
2022-09-26T07:47:04.506Z,30.55
2022-09-26T07:49:06.292Z,31.77
2022-09-26T07:51:09.353Z,32.72
2022-09-26T07:53:11.278Z,32.80
2022-09-26T07:55:16.294Z,32.72
2022-09-26T07:57:17.978Z,33.30
2022-09-26T07:59:19.930Z,33.72
2022-09-26T08:01:21.885Z,32.15
2022-09-26T08:03:24.140Z,31.90
2022-09-26T08:05:26.135Z,30.80
2022-09-26T08:07:27.980Z,30.88
2022-09-26T08:09:29.706Z,28.98
2022-09-26T08:11:31.582Z,29.88
2022-09-26T08:13:33.547Z,30.10
2022-09-26T08:15:35.282Z,29.98
2022-09-26T08:17:37.125Z,28.70
2022-09-26T08:19:39.070Z,31.27
2022-09-26T08:21:40.759Z,36.72
2022-09-26T08:23:42.540Z,38.97
2022-09-26T08:25:44.763Z,30.45
2022-09-26T08:27:46.450Z,29.90
2022-09-26T08:29:48.951Z,29.10
2022-09-26T08:31:50.771Z,27.98
2022-09-26T08:33:52.550Z,28.38
2022-09-26T08:35:54.531Z,27.02
2022-09-26T08:38:01.049Z,28.42
2022-09-26T08:40:02.879Z,26.58
2022-09-26T08:42:10.738Z,25.83
2022-09-26T08:44:56.755Z,27.75
2022-09-26T08:47:03.290Z,27.60
2022-09-26T08:49:26.401Z,27.27
2022-09-26T08:51:44.444Z,25.40
2022-09-26T08:53:56.034Z,24.45
2022-09-26T08:56:00.751Z,23.83
2022-09-26T08:58:10.820Z,22.83
2022-09-26T09:00:22.531Z,22.08
2022-09-26T09:02:40.446Z,24.08
2022-09-26T09:04:58.011Z,23.00
2022-09-26T09:07:07.264Z,22.63
2022-09-26T09:09:14.817Z,21.38
2022-09-26T09:11:37.467Z,20.33
2022-09-26T09:13:58.079Z,21.52
2022-09-26T09:16:40.686Z,22.00
2022-09-26T09:19:00.035Z,20.90
2022-09-26T09:21:01.670Z,19.52
2022-09-26T09:23:27.917Z,19.40
2022-09-26T09:25:42.532Z,16.42
2022-09-26T09:27:53.831Z,18.55
2022-09-26T09:30:01.352Z,18.80
2022-09-26T09:32:04.928Z,15.93
2022-09-26T09:36:25.666Z,16.50
2022-09-26T09:38:30.538Z,16.20
2022-09-26T09:40:41.377Z,14.70
2022-09-26T09:43:06.126Z,9.93
2022-09-26T09:45:33.423Z,9.43
2022-09-26T09:47:39.135Z,10.25
2022-09-26T09:49:42.699Z,10.85
2022-09-26T09:54:10.273Z,9.10
2022-09-26T09:56:12.091Z,9.93
2022-09-26T09:58:34.586Z,9.15
2022-09-26T10:00:42.218Z,9.35
2022-09-26T10:02:46.945Z,8.80
2022-09-26T10:05:00.334Z,9.68
2022-09-26T10:07:02.417Z,8.30
2022-09-26T10:09:40.370Z,10.05
2022-09-26T10:11:42.916Z,9.30
2022-09-26T10:13:45.431Z,8.70
2022-09-26T10:16:00.025Z,8.63
2022-09-26T10:18:24.046Z,9.00
2022-09-26T10:20:39.632Z,9.45
2022-09-26T10:22:43.666Z,9.57
2022-09-26T10:24:47.434Z,11.15
2022-09-26T10:26:49.147Z,9.80
2022-09-26T10:28:54.575Z,9.38
2022-09-26T10:31:05.531Z,9.38
2022-09-26T10:33:24.684Z,8.65
2022-09-26T10:35:43.157Z,10.57
2022-09-26T10:38:07.114Z,12.07
2022-09-26T10:40:27.948Z,10.20
2022-09-26T10:42:32.417Z,9.93
2022-09-26T10:44:35.454Z,8.52
2022-09-26T10:46:37.385Z,9.32
2022-09-26T10:48:51.199Z,9.55
2022-09-26T10:50:55.859Z,8.25
2022-09-26T10:53:02.997Z,8.07
2022-09-26T10:55:16.713Z,8.27
2022-09-26T10:57:23.520Z,9.73
2022-09-26T10:59:29.520Z,8.85
2022-09-26T11:01:32.271Z,8.05
2022-09-26T11:03:41.039Z,8.85
2022-09-26T11:05:45.018Z,8.85
2022-09-26T11:07:48.372Z,7.78
2022-09-26T11:09:50.932Z,8.15
2022-09-26T11:11:53.473Z,7.72
2022-09-26T11:14:03.617Z,7.15
2022-09-26T11:16:10.053Z,7.50
2022-09-26T11:18:23.121Z,7.53
2022-09-26T11:20:44.230Z,6.23
2022-09-26T11:22:54.577Z,7.13
2022-09-26T11:25:05.234Z,7.43
2022-09-26T11:27:21.433Z,6.85
2022-09-26T11:29:37.074Z,6.63
2022-09-26T11:31:41.552Z,6.63
2022-09-26T11:33:43.280Z,7.07
2022-09-26T11:36:09.200Z,7.65
2022-09-26T11:38:42.818Z,8.02
2022-09-26T11:40:59.532Z,7.78
2022-09-26T11:43:29.300Z,6.75
2022-09-26T11:46:02.937Z,7.38
2022-09-26T11:48:26.611Z,7.68
2022-09-26T11:50:40.550Z,7.40
2022-09-26T11:55:23.758Z,7.30
2022-09-26T11:57:53.096Z,6.68
2022-09-26T12:00:08.937Z,7.22
2022-09-26T12:02:30.816Z,7.80
2022-09-26T12:04:59.925Z,6.93
2022-09-26T12:07:22.856Z,6.93
2022-09-26T12:09:58.006Z,7.20
2022-09-26T12:12:27.135Z,8.05
2022-09-26T12:15:10.591Z,6.80
2022-09-26T12:17:30.576Z,6.47
2022-09-26T12:19:38.846Z,7.13
2022-09-26T12:22:11.604Z,7.22
2022-09-26T12:24:27.618Z,7.63
2022-09-26T12:27:40.070Z,6.70
2022-09-26T12:30:04.491Z,7.72
2022-09-26T12:32:33.702Z,7.43
2022-09-26T12:35:05.974Z,7.68
2022-09-26T12:37:46.096Z,6.32
2022-09-26T12:40:01.321Z,6.55
2022-09-26T12:42:14.928Z,6.85
2022-09-26T12:44:41.773Z,6.88
2022-09-26T12:47:07.036Z,7.25
2022-09-26T12:49:40.095Z,7.13
2022-09-26T12:51:51.548Z,7.40
2022-09-26T12:54:17.636Z,6.57
2022-09-26T12:56:36.271Z,7.63
2022-09-26T12:58:43.966Z,7.63
2022-09-26T13:01:01.168Z,7.30
2022-09-26T13:03:24.376Z,8.05
2022-09-26T13:05:47.532Z,8.18
2022-09-26T13:08:18.525Z,7.10
2022-09-26T13:10:26.367Z,7.22
2022-09-26T13:13:01.656Z,6.82
2022-09-26T13:15:19.308Z,7.93
2022-09-26T13:17:23.901Z,7.97
2022-09-26T13:19:54.604Z,7.85
2022-09-26T13:22:01.072Z,9.00
2022-09-26T13:24:11.606Z,7.68
2022-09-26T13:26:29.597Z,7.80
2022-09-26T13:28:55.471Z,8.35
2022-09-26T13:31:35.822Z,8.10
2022-09-26T13:34:03.568Z,8.15
2022-09-26T13:36:09.056Z,8.68
2022-09-26T13:38:43.157Z,10.32
2022-09-26T13:40:57.226Z,9.93
2022-09-26T13:43:14.154Z,8.23
2022-09-26T13:45:27.877Z,8.00
2022-09-26T13:47:45.610Z,7.88
2022-09-26T13:50:13.817Z,7.40
2022-09-26T13:52:33.993Z,7.20
2022-09-26T13:54:46.456Z,6.80
2022-09-26T13:56:52.121Z,7.05
2022-09-26T13:59:31.277Z,6.90
2022-09-26T14:01:32.967Z,6.93
2022-09-26T14:03:39.287Z,6.90
2022-09-26T14:05:44.037Z,6.53
2022-09-26T14:07:53.338Z,6.85
2022-09-26T14:10:01.095Z,7.45
2022-09-26T14:12:22.057Z,7.05
2022-09-26T14:14:26.263Z,7.25
2022-09-26T14:16:27.902Z,6.72
2022-09-26T14:19:07.065Z,6.80
2022-09-26T14:21:21.299Z,7.40
2022-09-26T14:23:43.072Z,7.35
2022-09-26T14:25:44.868Z,6.70
2022-09-26T14:27:46.833Z,7.40
2022-09-26T14:30:10.306Z,7.15
2022-09-26T14:32:43.690Z,7.90
2022-09-26T14:34:53.946Z,7.57
2022-09-26T14:37:01.687Z,7.57
2022-09-26T14:39:05.273Z,7.50
2022-09-26T14:43:19.880Z,7.25
2022-09-26T14:45:25.979Z,8.13
2022-09-26T14:47:39.848Z,8.85
2022-09-26T14:49:42.074Z,8.93
2022-09-26T14:51:49.249Z,9.40
2022-09-26T14:53:53.914Z,10.05
2022-09-26T14:56:06.154Z,14.57
2022-09-26T14:58:49.546Z,77.53
2022-09-26T15:00:54.651Z,55.03
2022-09-26T15:03:00.987Z,14.55
2022-09-26T15:05:12.206Z,9.80
2022-09-26T15:07:25.437Z,9.43
2022-09-26T15:09:40.689Z,8.88
2022-09-26T15:11:47.889Z,8.68
2022-09-26T15:13:52.449Z,8.98
2022-09-26T15:16:19.224Z,8.70
2022-09-26T15:18:27.057Z,9.85
2022-09-26T15:20:31.197Z,8.73
2022-09-26T15:22:35.454Z,8.45
2022-09-26T15:24:37.285Z,8.40
2022-09-26T15:26:39.081Z,7.93
2022-09-26T15:28:40.862Z,8.10
2022-09-26T15:30:42.806Z,9.50
2022-09-26T15:32:47.214Z,12.85
2022-09-26T15:34:49.032Z,11.30
2022-09-26T15:36:56.703Z,10.95
2022-09-26T15:38:58.807Z,9.98
2022-09-26T15:41:02.161Z,12.27
2022-09-26T15:43:10.204Z,11.77
2022-09-26T15:45:22.625Z,11.68
2022-09-26T15:47:41.481Z,10.50
2022-09-26T15:49:43.233Z,11.18
2022-09-26T15:51:45.426Z,10.85
2022-09-26T15:53:55.863Z,10.32
2022-09-26T15:55:57.534Z,10.90
2022-09-26T15:58:02.290Z,10.63
2022-09-26T16:00:04.324Z,9.85
2022-09-26T16:02:31.075Z,9.63
2022-09-26T16:04:33.329Z,9.40
2022-09-26T16:06:38.086Z,9.52
2022-09-26T16:08:42.660Z,10.77
2022-09-26T16:10:54.129Z,10.60
2022-09-26T16:12:58.216Z,10.35
2022-09-26T16:15:18.114Z,10.27
2022-09-26T16:17:24.993Z,10.70
2022-09-26T16:19:35.241Z,11.07
2022-09-26T16:21:36.947Z,10.93
2022-09-26T16:23:49.575Z,10.95
2022-09-26T16:25:53.526Z,10.98
2022-09-26T16:27:59.643Z,11.55
2022-09-26T16:30:05.262Z,11.82
2022-09-26T16:32:19.640Z,11.38
2022-09-26T16:36:27.925Z,11.13
2022-09-26T16:38:34.146Z,16.35
2022-09-26T16:40:36.552Z,23.58
2022-09-26T16:42:38.432Z,16.35
2022-09-26T16:44:42.191Z,19.88
2022-09-26T16:46:50.302Z,20.73
2022-09-26T16:48:52.070Z,19.80
2022-09-26T16:51:12.049Z,21.08
2022-09-26T16:53:13.990Z,41.85
2022-09-26T16:55:15.770Z,31.77
2022-09-26T16:57:32.502Z,20.25
2022-09-26T17:04:30.156Z,28.48
2022-09-26T17:06:31.849Z,22.85
2022-09-26T17:08:33.676Z,69.95
2022-09-26T17:10:35.815Z,48.25
2022-09-26T17:12:37.997Z,26.80
2022-09-26T17:14:41.737Z,18.92
2022-09-26T17:19:09.463Z,13.00
2022-09-26T17:21:11.157Z,15.98
2022-09-26T17:23:38.141Z,12.02
2022-09-26T17:25:35.467Z,14.55
2022-09-26T17:27:37.193Z,15.88
2022-09-26T17:29:45.154Z,13.93
2022-09-26T17:31:47.390Z,15.20
2022-09-26T17:33:51.645Z,18.42
2022-09-26T17:35:53.412Z,16.90
2022-09-26T17:37:56.140Z,15.60
2022-09-26T17:39:57.880Z,27.15
2022-09-26T17:41:59.644Z,54.35
2022-09-26T17:44:01.587Z,35.15
2022-09-26T17:46:03.407Z,19.33
2022-09-26T17:48:12.429Z,15.93
2022-09-26T17:50:40.551Z,29.50
2022-09-26T17:52:42.242Z,25.30
2022-09-26T17:54:46.463Z,35.30
2022-09-26T17:56:48.730Z,39.22
2022-09-26T17:58:50.443Z,33.80
2022-09-26T18:00:52.348Z,37.80
2022-09-26T18:03:00.489Z,44.53
2022-09-26T18:05:08.275Z,42.30
2022-09-26T18:07:12.348Z,40.35
2022-09-26T18:09:15.425Z,36.28
2022-09-26T18:11:18.749Z,37.35
2022-09-26T18:13:23.180Z,79.05
2022-09-26T18:15:26.823Z,178.88
2022-09-26T18:19:30.098Z,123.65
2022-09-26T18:21:31.978Z,105.45
2022-09-26T18:23:52.225Z,102.95
2022-09-26T18:25:56.867Z,74.32
2022-09-26T18:28:02.403Z,75.30
2022-09-26T18:30:04.843Z,83.05
2022-09-26T18:32:14.209Z,111.38
2022-09-26T18:34:17.166Z,105.32
2022-09-26T18:36:18.921Z,99.57
2022-09-26T18:38:20.677Z,61.72
2022-09-26T18:40:28.450Z,61.10
2022-09-26T18:42:30.330Z,59.13
2022-09-26T18:44:32.578Z,55.28
2022-09-26T18:46:34.447Z,72.43
2022-09-26T18:48:36.215Z,49.28
2022-09-26T18:50:39.670Z,45.28
2022-09-26T18:52:41.533Z,67.18
2022-09-26T18:54:44.703Z,55.38
2022-09-26T18:56:46.394Z,39.67
2022-09-26T18:58:48.538Z,26.10
2022-09-26T19:00:58.880Z,58.78
2022-09-26T19:03:00.612Z,49.83
2022-09-26T19:05:04.113Z,35.20
2022-09-26T19:07:06.864Z,51.97
2022-09-26T19:09:13.261Z,29.53
2022-09-26T19:11:18.427Z,27.17
2022-09-26T19:13:24.022Z,21.30
2022-09-26T19:15:28.497Z,21.38
2022-09-26T19:17:30.271Z,24.52
2022-09-26T19:19:32.033Z,24.20
2022-09-26T19:21:46.221Z,30.85
2022-09-26T19:23:49.523Z,24.50
2022-09-26T19:25:51.342Z,33.85
2022-09-26T19:27:53.209Z,24.35
2022-09-26T19:30:02.579Z,22.80
2022-09-26T19:32:08.512Z,24.65
2022-09-26T19:34:15.323Z,25.52
2022-09-26T19:36:19.258Z,26.70
2022-09-26T19:38:26.686Z,28.40
2022-09-26T19:40:29.116Z,37.95
2022-09-26T19:42:30.979Z,31.80
2022-09-26T19:44:32.674Z,23.48
2022-09-26T19:46:37.198Z,24.88
2022-09-26T19:48:40.650Z,37.55
2022-09-26T19:50:44.681Z,43.88
2022-09-26T19:52:46.800Z,29.02
2022-09-26T19:54:49.223Z,47.03
2022-09-26T19:56:51.015Z,41.13
2022-09-26T19:58:52.773Z,38.75
2022-09-26T20:00:57.452Z,25.85
2022-09-26T20:02:59.355Z,23.77
2022-09-26T20:05:01.295Z,32.65
2022-09-26T20:07:03.126Z,28.05
2022-09-26T20:09:10.886Z,24.27
2022-09-26T20:11:12.595Z,26.20
2022-09-26T20:13:14.545Z,26.67
2022-09-26T20:15:18.091Z,26.30
2022-09-26T20:17:25.891Z,27.52
2022-09-26T20:19:30.702Z,31.75
2022-09-26T20:21:33.118Z,26.27
2022-09-26T20:23:35.698Z,25.02
2022-09-26T20:25:37.441Z,25.15
2022-09-26T20:27:39.120Z,28.15
2022-09-26T20:29:40.873Z,27.63
2022-09-26T20:31:42.698Z,25.98
2022-09-26T20:33:44.423Z,24.92
2022-09-26T20:35:47.175Z,37.38
2022-09-26T20:37:49.262Z,41.22
2022-09-26T20:39:51.481Z,47.80
2022-09-26T20:41:53.493Z,43.40
2022-09-26T20:43:59.102Z,30.60
2022-09-26T20:46:09.729Z,40.80
2022-09-26T20:48:21.131Z,37.05
2022-09-26T20:50:22.982Z,32.25
2022-09-26T20:52:27.486Z,40.05
2022-09-26T20:54:31.663Z,33.67
2022-09-26T20:56:33.391Z,35.63
2022-09-26T20:58:35.325Z,30.67
2022-09-26T21:00:37.133Z,38.58
2022-09-26T21:02:39.631Z,32.00
2022-09-26T21:04:41.540Z,35.70
2022-09-26T21:06:44.452Z,36.58
2022-09-26T21:08:46.658Z,44.95
2022-09-26T21:10:48.509Z,66.53
2022-09-26T21:12:50.615Z,35.22
2022-09-26T21:14:52.382Z,92.80
2022-09-26T21:16:54.660Z,48.85
2022-09-26T21:18:56.481Z,28.95
2022-09-26T21:21:07.234Z,27.58
2022-09-26T21:23:10.277Z,28.77
2022-09-26T21:25:20.127Z,29.27
2022-09-26T21:27:21.856Z,43.05
2022-09-26T21:29:23.856Z,29.42
2022-09-26T21:31:32.044Z,45.47
2022-09-26T21:33:33.788Z,46.42
2022-09-26T21:35:35.559Z,32.88
2022-09-26T21:37:37.311Z,26.25
2022-09-26T21:39:39.329Z,28.15
2022-09-26T21:41:41.191Z,27.70
2022-09-26T21:43:49.098Z,26.02
2022-09-26T21:45:50.890Z,29.83
2022-09-26T21:47:52.681Z,28.98
2022-09-26T21:49:54.440Z,23.60
2022-09-26T21:52:05.839Z,32.33
2022-09-26T21:54:12.913Z,43.55
2022-09-26T21:56:25.779Z,39.53
2022-09-26T21:58:30.918Z,34.45
2022-09-26T22:00:32.930Z,31.27
2022-09-26T22:02:34.750Z,30.02
2022-09-26T22:04:36.781Z,31.90
2022-09-26T22:06:38.581Z,34.60
2022-09-26T22:08:41.182Z,37.65
2022-09-26T22:10:49.966Z,31.20
2022-09-26T22:12:52.303Z,27.88
2022-09-26T22:14:54.028Z,30.67
2022-09-26T22:16:56.227Z,27.42
2022-09-26T22:18:58.518Z,34.88
2022-09-26T22:21:00.221Z,29.45
2022-09-26T22:23:01.967Z,29.60
2022-09-26T22:25:05.517Z,24.52
2022-09-26T22:27:07.182Z,24.48
2022-09-26T22:29:09.094Z,24.83
2022-09-26T22:31:11.683Z,26.27
2022-09-26T22:33:13.511Z,24.80
2022-09-26T22:35:15.351Z,25.30
2022-09-26T22:37:17.292Z,28.38
2022-09-26T22:39:19.240Z,28.30
2022-09-26T22:41:21.328Z,26.48
2022-09-26T22:43:23.270Z,28.77
2022-09-26T22:45:25.008Z,29.27
2022-09-26T22:47:26.900Z,25.55
2022-09-26T22:49:28.810Z,25.98
2022-09-26T22:51:30.506Z,25.23
2022-09-26T22:53:34.210Z,23.98
2022-09-26T22:57:37.628Z,29.42
2022-09-26T22:59:39.463Z,29.73
2022-09-26T23:01:41.217Z,34.47
2022-09-26T23:03:43.155Z,26.55
2022-09-26T23:05:47.463Z,29.08
2022-09-26T23:07:55.473Z,34.88
2022-09-26T23:09:57.639Z,27.90
2022-09-26T23:11:59.391Z,29.30
2022-09-26T23:14:01.119Z,27.50
2022-09-26T23:16:07.711Z,31.45
2022-09-26T23:18:10.302Z,30.02
2022-09-26T23:20:12.019Z,29.02
2022-09-26T23:22:14.044Z,27.70
2022-09-26T23:24:15.902Z,27.88
2022-09-26T23:26:20.794Z,34.45
2022-09-26T23:28:22.534Z,31.67
2022-09-26T23:30:24.483Z,30.58
2022-09-26T23:32:26.260Z,27.67
2022-09-26T23:34:28.013Z,26.52
2022-09-26T23:36:30.092Z,26.80
2022-09-26T23:38:32.051Z,26.80
2022-09-26T23:40:36.132Z,26.02
2022-09-26T23:42:37.856Z,29.33
2022-09-26T23:44:39.651Z,29.92
2022-09-26T23:46:41.558Z,29.85
2022-09-26T23:48:43.651Z,31.20
2022-09-26T23:50:46.436Z,30.20
2022-09-26T23:52:48.501Z,29.23
2022-09-26T23:54:50.257Z,30.15
2022-09-26T23:56:51.928Z,29.60
2022-09-26T23:58:56.288Z,26.85
